Time,TemperatureF,DewpointF,PressureIn,WindDirection,WindDirectionDegrees,WindSpeedMPH,WindSpeedGustMPH,Humidity,HourlyPrecipIn,Conditions,Clouds,dailyrainin,SolarRadiationWatts/m^2,SoftwareType,DateUTC
2013-06-25 00:01:00,70.0,51.0,-100.00,NNE,21,2.0,5.0,51,0.00,,,0.00,23.000000,,2013-06-25 08:01:00,
2013-06-25 00:11:00,70.0,51.0,-100.00,NNE,21,2.0,5.0,51,0.00,,,0.00,23.000000,,2013-06-25 08:11:00,
2013-06-25 00:43:00,71.0,49.0,-100.00,NNE,24,2.0,7.0,46,0.00,,,0.00,10.000000,,2013-06-25 08:43:00,
2013-06-25 00:53:00,71.0,49.0,-100.00,NNE,24,2.0,7.0,46,0.00,,,0.00,10.000000,,2013-06-25 08:53:00,
2013-06-25 01:02:00,71.0,49.0,-100.00,NNE,24,2.0,7.0,46,0.00,,,0.00,10.000000,,2013-06-25 09:02:00,
2013-06-25 01:12:00,71.0,49.0,-100.00,NNE,24,2.0,7.0,46,0.00,,,0.00,10.000000,,2013-06-25 09:12:00,
2013-06-25 01:43:00,72.0,49.0,-100.00,NE,34,2.0,11.0,45,0.00,,,0.00,5.000000,,2013-06-25 09:43:00,
2013-06-25 01:53:00,72.0,49.0,-100.00,NE,34,2.0,11.0,45,0.00,,,0.00,5.000000,,2013-06-25 09:53:00,
2013-06-25 02:01:00,72.0,49.0,-100.00,NE,34,2.0,11.0,45,0.00,,,0.00,5.000000,,2013-06-25 10:01:00,
2013-06-25 02:11:00,72.0,49.0,-100.00,NE,34,2.0,11.0,45,0.00,,,0.00,5.000000,,2013-06-25 10:11:00,
2013-06-25 02:43:00,70.0,51.0,-100.00,NE,51,4.0,8.0,51,0.00,,,0.00,2.000000,,2013-06-25 10:43:00,
2013-06-25 02:52:00,70.0,51.0,-100.00,NE,51,4.0,8.0,51,0.00,,,0.00,2.000000,,2013-06-25 10:52:00,
2013-06-25 03:02:00,70.0,51.0,-100.00,NE,51,4.0,8.0,51,0.00,,,0.00,2.000000,,2013-06-25 11:02:00,
2013-06-25 03:11:00,70.0,51.0,-100.00,NE,51,4.0,8.0,51,0.00,,,0.00,2.000000,,2013-06-25 11:11:00,
2013-06-25 06:43:00,64.0,56.0,-100.00,NE,37,0.0,0.0,75,-99.99,,,0.00,109.000000,,2013-06-25 14:43:00,
2013-06-25 06:53:00,64.0,56.0,-100.00,NE,37,0.0,0.0,75,-99.99,,,0.00,109.000000,,2013-06-25 14:53:00,
2013-06-25 07:01:00,64.0,56.0,-100.00,NE,37,0.0,0.0,75,-99.99,,,0.00,109.000000,,2013-06-25 15:01:00,
2013-06-25 07:11:00,64.0,56.0,-100.00,NE,37,0.0,0.0,75,-99.99,,,0.00,109.000000,,2013-06-25 15:11:00,
2013-06-25 07:44:00,71.0,61.0,-100.00,NNE,14,0.0,1.0,70,0.00,,,0.00,192.000000,,2013-06-25 15:44:00,
2013-06-25 07:53:00,71.0,61.0,-100.00,NNE,14,0.0,1.0,70,0.00,,,0.00,192.000000,,2013-06-25 15:53:00,
2013-06-25 08:03:00,71.0,61.0,-100.00,NNE,14,0.0,1.0,70,0.00,,,0.00,192.000000,,2013-06-25 16:03:00,
2013-06-25 08:12:00,71.0,61.0,-100.00,NNE,14,0.0,1.0,70,0.00,,,0.00,192.000000,,2013-06-25 16:12:00,
2013-06-25 08:44:00,78.0,56.0,-100.00,ENE,66,2.0,5.0,47,0.00,,,0.00,331.000000,,2013-06-25 16:44:00,
2013-06-25 08:52:00,78.0,56.0,-100.00,ENE,66,2.0,5.0,47,0.00,,,0.00,331.000000,,2013-06-25 16:52:00,
2013-06-25 09:01:00,78.0,56.0,-100.00,ENE,66,2.0,5.0,47,0.00,,,0.00,331.000000,,2013-06-25 17:01:00,
2013-06-25 09:11:00,78.0,56.0,-100.00,ENE,66,2.0,5.0,47,0.00,,,0.00,331.000000,,2013-06-25 17:11:00,
2013-06-25 09:44:00,82.0,56.0,-100.00,NE,44,1.0,5.0,41,0.00,,,0.00,455.000000,,2013-06-25 17:44:00,
2013-06-25 09:53:00,82.0,56.0,-100.00,NE,44,1.0,5.0,41,0.00,,,0.00,455.000000,,2013-06-25 17:53:00,
2013-06-25 10:02:00,82.0,56.0,-100.00,NE,44,1.0,5.0,41,0.00,,,0.00,455.000000,,2013-06-25 18:02:00,
2013-06-25 10:12:00,82.0,56.0,-100.00,NE,44,1.0,5.0,41,0.00,,,0.00,455.000000,,2013-06-25 18:12:00,
2013-06-25 10:45:00,83.0,55.0,-100.00,ENE,59,3.0,8.0,38,0.00,,,0.00,390.000000,,2013-06-25 18:45:00,
2013-06-25 10:53:00,83.0,55.0,-100.00,ENE,59,3.0,8.0,38,0.00,,,0.00,390.000000,,2013-06-25 18:53:00,
2013-06-25 11:01:00,83.0,55.0,-100.00,ENE,59,3.0,8.0,38,0.00,,,0.00,390.000000,,2013-06-25 19:01:00,
2013-06-25 11:11:00,83.0,55.0,-100.00,ENE,59,3.0,8.0,38,0.00,,,0.00,390.000000,,2013-06-25 19:11:00,
2013-06-25 11:44:00,89.0,52.0,-100.00,ESE,103,3.0,11.0,28,0.00,,,0.00,692.000000,,2013-06-25 19:44:00,
2013-06-25 11:54:00,89.0,52.0,-100.00,ESE,103,3.0,11.0,28,0.00,,,0.00,692.000000,,2013-06-25 19:54:00,
2013-06-25 12:01:00,89.0,52.0,-100.00,ESE,103,3.0,11.0,28,0.00,,,0.00,692.000000,,2013-06-25 20:01:00,
2013-06-25 12:11:00,89.0,52.0,-100.00,ESE,103,3.0,11.0,28,0.00,,,0.00,692.000000,,2013-06-25 20:11:00,
2013-06-25 12:42:00,91.0,51.0,-100.00,East,86,3.0,9.0,26,0.00,,,0.00,785.000000,,2013-06-25 20:42:00,
2013-06-25 12:52:00,91.0,51.0,-100.00,East,86,3.0,9.0,26,0.00,,,0.00,785.000000,,2013-06-25 20:52:00,
2013-06-25 13:01:00,91.0,51.0,-100.00,East,86,3.0,9.0,26,0.00,,,0.00,785.000000,,2013-06-25 21:01:00,
2013-06-25 13:11:00,91.0,51.0,-100.00,East,86,3.0,9.0,26,0.00,,,0.00,785.000000,,2013-06-25 21:11:00,
2013-06-25 13:43:00,92.0,49.0,-100.00,East,89,3.0,11.0,23,0.00,,,0.00,856.000000,,2013-06-25 21:43:00,
2013-06-25 13:53:00,92.0,49.0,-100.00,East,89,3.0,11.0,23,0.00,,,0.00,856.000000,,2013-06-25 21:53:00,
2013-06-25 14:01:00,92.0,49.0,-100.00,East,89,3.0,11.0,23,0.00,,,0.00,856.000000,,2013-06-25 22:01:00,
2013-06-25 14:11:00,92.0,49.0,-100.00,East,89,3.0,11.0,23,0.00,,,0.00,856.000000,,2013-06-25 22:11:00,
2013-06-25 14:42:00,92.0,46.0,-100.00,ENE,60,3.0,12.0,21,0.00,,,0.00,857.000000,,2013-06-25 22:42:00,
2013-06-25 14:52:00,92.0,46.0,-100.00,ENE,60,3.0,12.0,21,0.00,,,0.00,857.000000,,2013-06-25 22:52:00,
2013-06-25 15:01:00,92.0,46.0,-100.00,ENE,60,3.0,12.0,21,0.00,,,0.00,857.000000,,2013-06-25 23:01:00,
2013-06-25 15:11:00,92.0,46.0,-100.00,ENE,60,3.0,12.0,21,0.00,,,0.00,857.000000,,2013-06-25 23:11:00,
2013-06-25 15:44:00,95.0,50.0,-100.00,ESE,103,3.0,11.0,22,0.00,,,0.00,915.000000,,2013-06-25 23:44:00,
2013-06-25 15:52:00,95.0,50.0,-100.00,ESE,103,3.0,11.0,22,0.00,,,0.00,915.000000,,2013-06-25 23:52:00,
2013-06-25 16:02:00,95.0,50.0,-100.00,ESE,103,3.0,11.0,22,0.00,,,0.00,915.000000,,2013-06-26 00:02:00,
2013-06-25 16:11:00,95.0,50.0,-100.00,ESE,103,3.0,11.0,22,0.00,,,0.00,915.000000,,2013-06-26 00:11:00,
2013-06-25 17:43:00,93.0,50.0,-100.00,ENE,57,4.0,17.0,23,-99.99,,,0.00,751.000000,,2013-06-26 01:43:00,
2013-06-25 17:53:00,93.0,50.0,-100.00,ENE,57,4.0,17.0,23,-99.99,,,0.00,751.000000,,2013-06-26 01:53:00,
2013-06-25 18:01:00,93.0,50.0,-100.00,ENE,57,4.0,17.0,23,-99.99,,,0.00,751.000000,,2013-06-26 02:01:00,
2013-06-25 18:11:00,93.0,50.0,-100.00,ENE,57,4.0,17.0,23,-99.99,,,0.00,751.000000,,2013-06-26 02:11:00,
2013-06-25 18:43:00,87.0,49.0,-100.00,NNE,32,5.0,14.0,27,0.00,,,0.00,482.000000,,2013-06-26 02:43:00,
2013-06-25 18:53:00,87.0,49.0,-100.00,NNE,32,5.0,14.0,27,0.00,,,0.00,482.000000,,2013-06-26 02:53:00,
2013-06-25 19:02:00,87.0,49.0,-100.00,NNE,32,5.0,14.0,27,0.00,,,0.00,482.000000,,2013-06-26 03:02:00,
2013-06-25 19:11:00,87.0,49.0,-100.00,NNE,32,5.0,14.0,27,0.00,,,0.00,482.000000,,2013-06-26 03:11:00,
2013-06-25 19:43:00,85.0,50.0,-100.00,NE,39,4.0,15.0,30,0.00,,,0.00,245.000000,,2013-06-26 03:43:00,
2013-06-25 19:52:00,85.0,50.0,-100.00,NE,39,4.0,15.0,30,0.00,,,0.00,245.000000,,2013-06-26 03:52:00,
2013-06-25 20:01:00,85.0,50.0,-100.00,NE,39,4.0,15.0,30,0.00,,,0.00,245.000000,,2013-06-26 04:01:00,
2013-06-25 20:12:00,85.0,50.0,-100.00,NE,39,4.0,15.0,30,0.00,,,0.00,245.000000,,2013-06-26 04:12:00,
2013-06-25 20:43:00,84.0,49.0,-100.00,NE,35,5.0,15.0,30,0.00,,,0.00,195.000000,,2013-06-26 04:43:00,
2013-06-25 20:53:00,84.0,49.0,-100.00,NE,35,5.0,15.0,30,0.00,,,0.00,195.000000,,2013-06-26 04:53:00,
2013-06-25 21:02:00,84.0,49.0,-100.00,NE,35,5.0,15.0,30,0.00,,,0.00,195.000000,,2013-06-26 05:02:00,
2013-06-25 21:11:00,84.0,49.0,-100.00,NE,35,5.0,15.0,30,0.00,,,0.00,195.000000,,2013-06-26 05:11:00,
2013-06-25 21:43:00,80.0,48.0,-100.00,NNE,33,5.0,16.0,33,0.00,,,0.00,98.000000,,2013-06-26 05:43:00,
2013-06-25 21:52:00,80.0,48.0,-100.00,NNE,33,5.0,16.0,33,0.00,,,0.00,98.000000,,2013-06-26 05:52:00,
2013-06-25 22:01:00,80.0,48.0,-100.00,NNE,33,5.0,16.0,33,0.00,,,0.00,98.000000,,2013-06-26 06:01:00,
2013-06-25 22:11:00,80.0,48.0,-100.00,NNE,33,5.0,16.0,33,0.00,,,0.00,98.000000,,2013-06-26 06:11:00,
2013-06-25 22:44:00,79.0,50.0,-100.00,NE,37,5.0,15.0,36,0.00,,,0.00,43.000000,,2013-06-26 06:44:00,
2013-06-25 22:53:00,79.0,50.0,-100.00,NE,37,5.0,15.0,36,0.00,,,0.00,43.000000,,2013-06-26 06:53:00,
2013-06-25 23:01:00,79.0,50.0,-100.00,NE,37,5.0,15.0,36,0.00,,,0.00,43.000000,,2013-06-26 07:01:00,
2013-06-25 23:11:00,79.0,50.0,-100.00,NE,37,5.0,15.0,36,0.00,,,0.00,43.000000,,2013-06-26 07:11:00,
2013-06-25 23:43:00,77.0,51.0,-100.00,NE,44,6.0,13.0,40,0.00,,,0.00,25.000000,,2013-06-26 07:43:00,
2013-06-25 23:53:00,77.0,51.0,-100.00,NE,44,6.0,13.0,40,0.00,,,0.00,25.000000,,2013-06-26 07:53:00,